Time;durP1;ratioP1;P1;durP2;ratioP2;P2;SDS_P1;SDS_P2;PMS_P1;PMS_P2;Temp;Humidity;BMP_temperature;BMP_pressure;BME280_temperature;BME280_humidity;BME280_pressure;Samples;Min_cycle;Max_cycle;Signal;HPM_P1;HPM_P2
2023/10/02 00:01:58;;;;;;;1999.90;999.90;;;19.70;99.90;;;;;;5034528;28;20037;-75
2023/10/02 00:04:25;;;;;;;1999.90;999.90;;;19.70;99.90;;;;;;5035201;28;20029;-78
2023/10/02 00:07:05;;;;;;;1999.90;999.90;;;19.70;99.90;;;;;;5052053;28;20017;-75
2023/10/02 00:09:38;;;;;;;1999.90;999.90;;;19.70;99.90;;;;;;5043849;28;20124;-78
2023/10/02 00:12:11;;;;;;;1999.90;999.90;;;19.60;99.90;;;;;;5052795;28;20028;-78
2023/10/02 00:14:41;;;;;;;1999.90;999.90;;;19.60;99.90;;;;;;5054092;28;20036;-76
2023/10/02 00:17:13;;;;;;;1999.90;999.90;;;19.60;99.90;;;;;;5054087;28;20111;-76
2023/10/02 00:19:49;;;;;;;1999.90;999.90;;;19.50;99.90;;;;;;5054271;28;20399;-78
2023/10/02 00:25:07;;;;;;;1999.90;999.90;;;19.50;99.90;;;;;;5053725;28;20589;-78
2023/10/02 00:27:36;;;;;;;1999.90;999.90;;;19.40;99.90;;;;;;5033110;28;20026;-78
2023/10/02 00:30:07;;;;;;;1999.90;999.90;;;19.40;99.90;;;;;;5033777;28;20496;-75
2023/10/02 00:32:34;;;;;;;1999.90;999.90;;;19.50;99.90;;;;;;5032585;28;20091;-78
2023/10/02 00:35:02;;;;;;;1999.90;999.90;;;19.50;99.90;;;;;;5033946;28;20480;-78
2023/10/02 00:37:44;;;;;;;1999.90;999.90;;;19.60;99.90;;;;;;5034055;28;20033;-78
2023/10/02 00:40:13;;;;;;;1999.90;999.90;;;19.60;99.90;;;;;;5033831;28;20488;-75
2023/10/02 00:42:39;;;;;;;1999.90;999.90;;;19.60;99.90;;;;;;5033797;28;20034;-75
2023/10/02 00:45:08;;;;;;;1999.90;999.90;;;19.60;99.90;;;;;;5033257;28;20042;-78
2023/10/02 00:47:42;;;;;;;1999.90;999.90;;;19.60;99.90;;;;;;5033491;28;20231;-78
2023/10/02 00:50:19;;;;;;;1999.90;999.90;;;19.60;99.90;;;;;;5033376;28;20060;-76
2023/10/02 00:53:04;;;;;;;1999.90;999.90;;;19.60;99.90;;;;;;5032268;28;20026;-75
2023/10/02 00:55:32;;;;;;;1999.90;999.90;;;19.50;99.90;;;;;;5033897;28;20387;-75
2023/10/02 00:57:59;;;;;;;1999.90;999.90;;;19.40;99.90;;;;;;5049544;28;20021;-78
2023/10/02 01:00:35;;;;;;;1999.90;999.90;;;19.40;99.90;;;;;;5053402;28;20448;-78
2023/10/02 01:03:04;;;;;;;1999.90;999.90;;;19.30;99.90;;;;;;5053052;28;20472;-78
2023/10/02 01:05:50;;;;;;;1999.90;999.90;;;19.20;99.90;;;;;;5052540;28;20021;-75
2023/10/02 01:08:24;;;;;;;1999.90;999.90;;;19.20;99.90;;;;;;5045060;28;20495;-75
2023/10/02 01:11:02;;;;;;;1999.90;999.90;;;19.10;99.90;;;;;;5039304;28;20036;-78
2023/10/02 01:13:35;;;;;;;1999.90;999.90;;;19.00;99.90;;;;;;5053038;28;20021;-75
2023/10/02 01:16:04;;;;;;;1999.90;999.90;;;19.00;99.90;;;;;;5051465;28;20036;-78
2023/10/02 01:18:30;;;;;;;1999.90;999.90;;;19.00;99.90;;;;;;5053025;28;20028;-75
2023/10/02 01:21:01;;;;;;;1999.90;999.90;;;19.00;99.90;;;;;;5051598;28;20407;-75
2023/10/02 01:23:28;;;;;;;1999.90;999.90;;;19.00;99.90;;;;;;5052953;28;20554;-78
2023/10/02 01:26:00;;;;;;;1999.90;999.90;;;19.00;99.90;;;;;;5045637;28;20044;-78
2023/10/02 01:28:49;;;;;;;1999.90;999.90;;;18.90;99.90;;;;;;5032940;28;20021;-78
2023/10/02 01:31:41;;;;;;;1999.90;999.90;;;18.90;99.90;;;;;;5032652;28;20511;-75
2023/10/02 01:34:07;;;;;;;1999.90;999.90;;;18.80;99.90;;;;;;5033036;28;20064;-75
2023/10/02 01:36:33;;;;;;;1999.90;999.90;;;18.70;99.90;;;;;;5031621;28;20048;-78
2023/10/02 01:39:14;;;;;;;1999.90;999.90;;;18.70;99.90;;;;;;5032505;28;20022;-75
2023/10/02 01:41:48;;;;;;;1999.90;999.90;;;18.60;99.90;;;;;;5032820;28;20080;-78
2023/10/02 01:44:20;;;;;;;1999.90;999.90;;;18.60;99.90;;;;;;5032836;28;20101;-75
2023/10/02 01:46:49;;;;;;;1999.90;999.90;;;18.60;99.90;;;;;;5033014;28;20064;-75
2023/10/02 01:49:26;;;;;;;1999.90;999.90;;;18.60;99.90;;;;;;5032822;28;20552;-78
2023/10/02 01:51:55;;;;;;;1999.90;999.90;;;18.70;99.90;;;;;;5032531;28;20392;-75
2023/10/02 01:54:28;;;;;;;1999.90;999.90;;;18.60;99.90;;;;;;5032659;28;20083;-75
2023/10/02 01:56:55;;;;;;;;;;;18.70;99.90;;;;;;5040177;28;20044;-75
2023/10/02 01:59:21;;;;;;;1999.90;999.90;;;18.70;99.90;;;;;;5056445;28;19970;-75
2023/10/02 02:01:56;;;;;;;1999.90;999.90;;;18.70;99.90;;;;;;5056751;28;20553;-78
2023/10/02 02:04:24;;;;;;;1999.90;999.90;;;18.80;99.90;;;;;;5056266;28;20028;-75
2023/10/02 02:06:56;;;;;;;1999.90;999.90;;;18.90;99.90;;;;;;5054139;28;20052;-78
2023/10/02 02:09:24;;;;;;;1999.90;999.90;;;18.90;99.90;;;;;;5047375;28;20020;-78
2023/10/02 02:14:53;;;;;;;1999.90;999.90;;;18.90;99.90;;;;;;5033261;28;20033;-78
2023/10/02 02:17:19;;;;;;;1999.90;999.90;;;18.90;99.90;;;;;;5056290;28;20399;-78
2023/10/02 02:19:49;;;;;;;1999.90;999.90;;;19.00;99.90;;;;;;5055109;28;20037;-78
2023/10/02 02:22:16;;;;;;;1999.90;999.90;;;19.00;99.90;;;;;;5056402;28;20063;-75
2023/10/02 02:24:42;;;;;;;1999.90;999.90;;;19.00;99.90;;;;;;5056121;28;20041;-75
2023/10/02 02:27:08;;;;;;;1999.90;999.90;;;19.00;99.90;;;;;;5038664;28;20040;-78
2023/10/02 02:29:34;;;;;;;1999.90;999.90;;;19.10;99.90;;;;;;5036278;28;20032;-75
2023/10/02 02:32:00;;;;;;;1999.90;999.90;;;19.00;99.90;;;;;;5036183;28;20496;-78
2023/10/02 02:34:26;;;;;;;1999.90;999.90;;;19.00;99.90;;;;;;5036311;28;20075;-75
2023/10/02 02:36:54;;;;;;;1999.90;999.90;;;18.90;99.90;;;;;;5036613;28;20024;-75
2023/10/02 02:39:24;;;;;;;1999.90;999.90;;;18.90;99.90;;;;;;5036133;28;20634;-78
2023/10/02 02:42:09;;;;;;;1999.90;999.90;;;18.80;99.90;;;;;;5036202;28;20100;-78
2023/10/02 02:44:46;;;;;;;1999.90;999.90;;;18.80;99.90;;;;;;5035788;28;20060;-78
2023/10/02 02:47:18;;;;;;;1999.90;999.90;;;18.80;99.90;;;;;;5035829;28;20052;-76
2023/10/02 02:49:51;;;;;;;1999.90;999.90;;;18.70;99.90;;;;;;5034621;28;20017;-75
2023/10/02 02:52:25;;;;;;;1999.90;999.90;;;18.70;99.90;;;;;;5035643;28;20510;-75
2023/10/02 02:54:58;;;;;;;1999.90;999.90;;;18.60;99.90;;;;;;5035913;28;20515;-78
2023/10/02 02:57:26;;;;;;;1999.90;999.90;;;18.60;99.90;;;;;;5047291;28;20440;-78
2023/10/02 03:00:24;;;;;;;1999.90;999.90;;;18.50;99.90;;;;;;5055713;28;20025;-77
2023/10/02 03:02:40;;;;;;;1999.90;999.90;;;18.50;99.90;;;;;;5055464;28;20446;-76
2023/10/02 03:05:11;;;;;;;1999.90;999.90;;;18.50;99.90;;;;;;5055063;28;20031;-76
2023/10/02 03:07:39;;;;;;;1999.90;999.90;;;18.50;99.90;;;;;;5049608;28;20032;-78
2023/10/02 03:10:10;;;;;;;1999.90;999.90;;;18.60;99.90;;;;;;5043735;28;20029;-75
2023/10/02 03:12:42;;;;;;;1999.90;999.90;;;18.60;99.90;;;;;;5052407;28;20428;-78
2023/10/02 03:15:12;;;;;;;1999.90;999.90;;;18.50;99.90;;;;;;5054892;28;20029;-75
2023/10/02 03:17:41;;;;;;;1999.90;999.90;;;18.60;99.90;;;;;;5055309;28;20625;-75
2023/10/02 03:20:22;;;;;;;1999.90;999.90;;;18.60;99.90;;;;;;5055383;28;20021;-78
2023/10/02 03:22:54;;;;;;;1999.90;999.90;;;18.60;99.90;;;;;;5055266;28;20025;-78
2023/10/02 03:25:40;;;;;;;1999.90;999.90;;;18.60;99.90;;;;;;5054805;28;20041;-78
2023/10/02 03:28:27;;;;;;;1999.90;999.90;;;18.50;99.90;;;;;;5053822;28;20025;-78
2023/10/02 03:30:57;;;;;;;1999.90;999.90;;;18.50;99.90;;;;;;5054770;28;20021;-75
2023/10/02 03:33:25;;;;;;;1999.90;999.90;;;18.40;99.90;;;;;;5055082;28;20024;-75
2023/10/02 03:35:58;;;;;;;1999.90;999.90;;;18.40;99.90;;;;;;5055191;28;20515;-78
2023/10/02 03:38:33;;;;;;;1999.90;999.90;;;18.30;99.90;;;;;;5054832;28;20061;-78
2023/10/02 03:41:05;;;;;;;1999.90;999.90;;;18.30;99.90;;;;;;5053372;28;20043;-75
2023/10/02 03:43:34;;;;;;;1999.90;999.90;;;18.30;99.90;;;;;;5054753;28;20021;-75
2023/10/02 03:46:06;;;;;;;1999.90;999.90;;;18.30;99.90;;;;;;5054782;28;20484;-78
2023/10/02 03:48:36;;;;;;;1999.90;999.90;;;18.30;99.90;;;;;;5053254;28;20373;-75
2023/10/02 03:51:06;;;;;;;1999.90;999.90;;;18.30;99.90;;;;;;5054496;28;20021;-75
2023/10/02 03:53:33;;;;;;;1999.90;999.90;;;18.30;99.90;;;;;;5052702;28;20024;-78
2023/10/02 03:58:50;;;;;;;1999.90;999.90;;;18.30;99.90;;;;;;5034827;28;20040;-78
2023/10/02 04:01:25;;;;;;;1999.90;999.90;;;18.40;99.90;;;;;;5049081;28;20029;-78
2023/10/02 04:06:56;;;;;;;1999.90;999.90;;;18.60;99.90;;;;;;4975815;28;20030;-76
2023/10/02 04:09:26;;;;;;;1999.90;999.90;;;18.50;99.90;;;;;;4991566;28;20046;-75
2023/10/02 04:11:54;;;;;;;1999.90;999.90;;;18.50;99.90;;;;;;4992819;28;20500;-78
2023/10/02 04:14:31;;;;;;;1999.90;999.90;;;18.50;99.90;;;;;;4992961;28;20048;-78
2023/10/02 04:17:20;;;;;;;1999.90;999.90;;;18.50;99.90;;;;;;4992766;28;20033;-75
2023/10/02 04:19:48;;;;;;;1999.90;999.90;;;18.50;99.90;;;;;;4992002;28;20022;-75
2023/10/02 04:22:22;;;;;;;1999.90;999.90;;;18.40;99.90;;;;;;4992161;28;20030;-75
2023/10/02 04:24:54;;;;;;;1999.90;999.90;;;18.40;99.90;;;;;;4992763;28;20046;-76
2023/10/02 04:32:39;;;;;;;1999.90;999.90;;;18.30;99.90;;;;;;4972878;28;20062;-78
2023/10/02 04:35:44;;;;;;;1999.90;999.90;;;18.30;99.90;;;;;;4972903;28;20406;-75
2023/10/02 04:37:58;;;;;;;1999.90;999.90;;;18.20;99.90;;;;;;4972912;28;20043;-78
2023/10/02 04:40:37;;;;;;;1999.90;999.90;;;18.20;99.90;;;;;;4993689;28;20041;-78
2023/10/02 04:43:19;;;;;;;1999.90;999.90;;;18.10;99.90;;;;;;5042637;28;20029;-77
2023/10/02 04:45:46;;;;;;;1999.90;999.90;;;18.10;99.90;;;;;;5053693;28;20455;-75
2023/10/02 04:48:13;;;;;;;1999.90;999.90;;;18.10;99.90;;;;;;5052250;28;20488;-75
2023/10/02 04:50:47;;;;;;;1999.90;999.90;;;18.10;99.90;;;;;;5052655;28;20037;-75
2023/10/02 04:53:22;;;;;;;1999.90;999.90;;;18.10;99.90;;;;;;5053437;28;20078;-77
2023/10/02 04:56:07;;;;;;;1999.90;999.90;;;18.20;99.90;;;;;;5053601;28;20028;-75
2023/10/02 04:58:39;;;;;;;1999.90;999.90;;;18.20;99.90;;;;;;5048167;28;20025;-77
2023/10/02 05:03:36;;;;;;;1999.90;999.90;;;18.20;99.90;;;;;;5052598;28;20049;-76
2023/10/02 05:06:03;;;;;;;1999.90;999.90;;;18.10;99.90;;;;;;5047002;28;20029;-75
2023/10/02 05:09:17;;;;;;;1999.90;999.90;;;18.10;99.90;;;;;;5045253;28;20400;-77
2023/10/02 05:11:45;;;;;;;1999.90;999.90;;;18.10;99.90;;;;;;5040596;28;20028;-75
2023/10/02 05:14:14;;;;;;;1999.90;999.90;;;18.10;99.90;;;;;;5053352;28;20071;-75
2023/10/02 05:16:42;;;;;;;1999.90;999.90;;;18.10;99.90;;;;;;5053145;28;20472;-75
2023/10/02 05:19:09;;;;;;;1999.90;999.90;;;18.10;99.90;;;;;;5053070;28;20070;-77
2023/10/02 05:21:38;;;;;;;1999.90;999.90;;;18.10;99.90;;;;;;5053151;28;20506;-77
2023/10/02 05:24:11;;;;;;;1999.90;999.90;;;18.20;99.90;;;;;;5053436;28;20009;-75
2023/10/02 05:26:41;;;;;;;1999.90;999.90;;;18.20;99.90;;;;;;5039577;28;20501;-75
2023/10/02 05:29:09;;;;;;;1999.90;999.90;;;18.20;99.90;;;;;;5047744;28;20078;-78
2023/10/02 05:31:41;;;;;;;1999.90;999.90;;;18.20;99.90;;;;;;5051555;28;20060;-76
2023/10/02 05:34:24;;;;;;;1999.90;999.90;;;18.20;99.90;;;;;;5050197;28;20458;-77
2023/10/02 05:39:41;;;;;;;1999.90;999.90;;;18.20;99.90;;;;;;5051185;28;20048;-74
2023/10/02 05:42:13;;;;;;;1999.90;999.90;;;18.20;99.90;;;;;;5047954;28;20025;-73
2023/10/02 05:44:44;;;;;;;1999.90;999.90;;;18.20;99.90;;;;;;5052511;28;20117;-78
2023/10/02 05:47:11;;;;;;;1999.90;999.90;;;18.20;99.90;;;;;;5051103;28;20025;-78
2023/10/02 05:49:49;;;;;;;1999.90;999.90;;;18.20;99.90;;;;;;5047904;28;20691;-78
2023/10/02 05:52:20;;;;;;;1999.90;999.90;;;18.20;99.90;;;;;;5041274;28;20435;-73
2023/10/02 05:54:55;;;;;;;1999.90;999.90;;;18.20;99.90;;;;;;5052112;28;20075;-73
2023/10/02 05:57:22;;;;;;;1999.90;999.90;;;18.20;99.90;;;;;;5052020;28;20087;-75
2023/10/02 05:59:48;;;;;;;1999.90;999.90;;;18.20;99.90;;;;;;5051710;28;20092;-76
2023/10/02 06:02:19;;;;;;;1999.90;999.90;;;18.10;99.90;;;;;;5044704;28;20116;-77
2023/10/02 06:04:52;;;;;;;1999.90;999.90;;;18.10;99.90;;;;;;5045168;28;20568;-73
2023/10/02 06:07:43;;;;;;;1999.90;999.90;;;18.00;99.90;;;;;;5048386;28;20025;-74
2023/10/02 06:10:18;;;;;;;1999.90;999.90;;;18.00;99.90;;;;;;5048679;28;20052;-75
2023/10/02 06:12:47;;;;;;;1999.90;999.90;;;17.90;99.90;;;;;;5051372;28;20032;-76
2023/10/02 06:15:47;;;;;;;1999.90;999.90;;;17.90;99.90;;;;;;5050953;28;20511;-76
2023/10/02 06:18:05;;;;;;;1999.90;999.90;;;17.80;99.90;;;;;;5043629;28;20041;-73
2023/10/02 06:20:31;;;;;;;1999.90;999.90;;;17.90;99.90;;;;;;5050617;28;20033;-73
2023/10/02 06:23:06;;;;;;;1999.90;999.90;;;17.80;99.90;;;;;;5048482;28;20040;-74
2023/10/02 06:25:31;;;;;;;1999.90;999.90;;;17.90;99.90;;;;;;5049424;28;20040;-76
2023/10/02 06:28:19;;;;;;;1999.90;999.90;;;17.90;99.90;;;;;;5048034;28;20404;-76
2023/10/02 06:30:47;;;;;;;1999.90;999.90;;;17.90;99.90;;;;;;5042536;28;20443;-73
2023/10/02 06:33:13;;;;;;;1999.90;999.90;;;17.90;99.90;;;;;;5046898;28;20423;-73
2023/10/02 06:35:44;;;;;;;1999.90;999.90;;;17.90;99.90;;;;;;5049763;28;20043;-73
2023/10/02 06:38:16;;;;;;;1999.90;999.90;;;17.90;99.90;;;;;;5042623;28;20051;-76
2023/10/02 06:40:56;;;;;;;1999.90;999.90;;;18.00;99.90;;;;;;5044653;28;20393;-75
2023/10/02 06:43:28;;;;;;;1999.90;999.90;;;18.00;99.90;;;;;;5048318;28;20291;-74
2023/10/02 06:46:10;;;;;;;1999.90;999.90;;;18.10;99.90;;;;;;5053156;28;20036;-73
2023/10/02 06:48:43;;;;;;;1999.90;999.90;;;18.20;99.90;;;;;;5053386;28;20120;-76
2023/10/02 06:51:10;;;;;;;;;;;18.20;99.90;;;;;;5044823;28;20413;-73
2023/10/02 06:53:40;;;;;;;1999.90;999.90;;;18.30;99.90;;;;;;5045142;28;19916;-76
2023/10/02 06:56:07;;;;;;;1999.90;999.90;;;18.40;99.90;;;;;;5036586;28;20590;-73
2023/10/02 06:58:52;;;;;;;1999.90;999.90;;;18.40;99.90;;;;;;5051223;28;20361;-73
2023/10/02 07:01:26;;;;;;;1999.90;999.90;;;18.50;99.90;;;;;;5052149;28;20063;-76
2023/10/02 07:03:52;;;;;;;1999.90;999.90;;;18.60;99.90;;;;;;5051709;28;20078;-76
2023/10/02 07:06:20;;;;;;;1999.90;999.90;;;18.60;99.90;;;;;;5048161;28;20021;-74
2023/10/02 07:09:10;;;;;;;1999.90;999.90;;;18.70;99.90;;;;;;5049288;28;20021;-75
2023/10/02 07:11:35;;;;;;;1999.90;999.90;;;18.80;99.90;;;;;;5051720;28;20017;-74
2023/10/02 07:14:03;;;;;;;1999.90;999.90;;;18.90;99.90;;;;;;5049342;28;20025;-76
2023/10/02 07:16:33;;;;;;;1999.90;999.90;;;18.90;99.90;;;;;;5051570;28;20070;-76
2023/10/02 07:18:59;;;;;;;1999.90;999.90;;;19.00;99.90;;;;;;5052425;28;20032;-76
2023/10/02 07:21:30;;;;;;;1999.90;999.90;;;19.10;99.90;;;;;;5049817;28;20028;-76
2023/10/02 07:24:02;;;;;;;1999.90;999.90;;;19.20;99.90;;;;;;5050138;28;20032;-73
2023/10/02 07:29:12;;;;;;;1999.90;999.90;;;19.30;99.90;;;;;;5052370;28;20036;-73
2023/10/02 07:31:38;;;;;;;1999.90;999.90;;;19.40;99.90;;;;;;5052528;28;20018;-76
2023/10/02 07:34:07;;;;;;;1999.90;999.90;;;19.60;99.90;;;;;;5052033;28;20017;-74
2023/10/02 07:36:44;;;;;;;1999.90;999.90;;;19.90;99.90;;;;;;5052675;28;20029;-73
2023/10/02 07:39:35;;;;;;;1999.90;999.90;;;20.40;99.90;;;;;;5052202;28;20081;-76
2023/10/02 07:42:04;;;;;;;1999.90;999.90;;;21.10;99.90;;;;;;5039737;28;20055;-76
2023/10/02 07:44:39;;;;;;;1999.90;999.90;;;21.00;99.90;;;;;;5051508;28;20484;-76
2023/10/02 07:47:19;;;;;;;1999.90;999.90;;;20.70;99.90;;;;;;5051556;28;20083;-76
2023/10/02 07:49:48;;;;;;;1999.90;999.90;;;20.50;99.90;;;;;;5050841;28;20217;-74
2023/10/02 07:52:26;;;;;;;1999.90;999.90;;;20.60;99.90;;;;;;5051511;28;20029;-73
2023/10/02 07:55:02;;;;;;;1999.90;999.90;;;20.60;99.90;;;;;;5050495;28;20664;-74
2023/10/02 07:57:32;;;;;;;1999.90;999.90;;;20.70;99.90;;;;;;5046988;28;20487;-76
2023/10/02 08:00:05;;;;;;;1999.90;999.90;;;20.70;99.90;;;;;;5049153;28;20033;-76
2023/10/02 08:02:33;;;;;;;1999.90;999.90;;;20.70;99.90;;;;;;5049849;28;20082;-74
2023/10/02 08:05:02;;;;;;;1999.90;999.90;;;20.90;99.90;;;;;;5045857;28;20061;-76
2023/10/02 08:07:29;;;;;;;1999.90;999.90;;;21.40;99.90;;;;;;5051736;28;20068;-76
2023/10/02 08:09:57;;;;;;;1999.90;999.90;;;21.80;99.90;;;;;;5051921;28;20079;-74
2023/10/02 08:12:34;;;;;;;1999.90;999.90;;;22.50;99.90;;;;;;5051616;28;20033;-76
2023/10/02 08:20:36;;;;;;;1999.90;999.90;;;23.20;99.90;;;;;;5051877;28;20451;-74
2023/10/02 08:23:21;;;;;;;1999.90;999.90;;;23.80;99.90;;;;;;5049477;28;20060;-77
2023/10/02 08:26:03;;;;;;;1999.90;999.90;;;25.40;99.90;;;;;;5031014;28;20554;-77
2023/10/02 08:28:37;;;;;;;1999.90;999.90;;;26.40;99.90;;;;;;5051285;28;20020;-74
2023/10/02 08:31:03;;;;;;;1999.90;999.90;;;25.00;99.90;;;;;;5051434;28;20556;-76
2023/10/02 08:33:33;;;;;;;1999.90;999.90;;;24.70;99.90;;;;;;5050155;28;20021;-76
2023/10/02 08:36:01;;;;;;;1999.90;999.90;;;24.80;99.90;;;;;;5051352;28;20437;-77
2023/10/02 08:38:27;;;;;;;1999.90;999.90;;;25.10;99.90;;;;;;5051022;28;20440;-77
2023/10/02 08:41:03;;;;;;;1999.90;999.90;;;25.50;99.90;;;;;;5050595;28;20025;-74
2023/10/02 08:43:32;;;;;;;1999.90;999.90;;;26.60;99.90;;;;;;5050875;28;20507;-74
2023/10/02 08:45:59;;;;;;;1999.90;999.90;;;27.10;99.90;;;;;;5051036;28;20036;-77
2023/10/02 08:48:25;;;;;;;1999.90;999.90;;;27.70;99.90;;;;;;5050773;28;20026;-76
2023/10/02 08:50:58;;;;;;;1999.90;999.90;;;28.40;99.90;;;;;;5051590;28;20052;-77
2023/10/02 08:53:24;;;;;;;1999.90;999.90;;;29.10;99.90;;;;;;5051478;28;20096;-76
2023/10/02 08:56:04;;;;;;;1999.90;999.90;;;29.30;99.90;;;;;;5049909;28;20155;-75
2023/10/02 08:58:31;;;;;;;1999.90;999.90;;;29.10;99.90;;;;;;5049386;28;20021;-76
2023/10/02 09:03:42;;;;;;;1999.90;999.90;;;28.80;99.90;;;;;;5051023;28;20033;-75
2023/10/02 09:11:41;;;;;;;1999.90;999.90;;;29.40;99.90;;;;;;5050111;28;20067;-76
2023/10/02 09:16:45;;;;;;;1999.90;999.90;;;29.10;99.90;;;;;;5050031;28;20307;-76
2023/10/02 09:19:31;;;;;;;1999.90;999.90;;;28.40;99.90;;;;;;5050225;28;20025;-75
2023/10/02 09:22:06;;;;;;;1999.90;999.90;;;27.00;99.90;;;;;;5050070;28;20146;-75
2023/10/02 09:24:37;;;;;;;1999.90;999.90;;;25.60;99.90;;;;;;5050254;28;20039;-74
2023/10/02 09:30:15;;;;;;;1999.90;999.90;;;25.60;99.90;;;;;;5050279;28;20095;-76
2023/10/02 09:32:47;;;;;;;1999.90;999.90;;;25.80;99.90;;;;;;5046800;28;20086;-75
2023/10/02 09:35:29;;;;;;;1999.90;999.90;;;25.40;99.90;;;;;;5050116;28;20399;-75
2023/10/02 09:37:57;;;;;;;1999.90;999.90;;;25.50;99.90;;;;;;5047645;28;20385;-77
2023/10/02 09:40:26;;;;;;;1999.90;999.90;;;25.30;99.90;;;;;;5050191;28;20025;-76
2023/10/02 09:43:01;;;;;;;1999.90;999.90;;;25.10;99.90;;;;;;5050300;28;20021;-77
2023/10/02 09:45:31;;;;;;;1999.90;999.90;;;25.40;99.90;;;;;;5050000;28;20043;-74
2023/10/02 09:47:59;;;;;;;1999.90;999.90;;;25.40;99.90;;;;;;5049801;28;20017;-75
2023/10/02 09:50:29;;;;;;;1999.90;999.90;;;25.50;99.90;;;;;;5049860;28;20039;-76
2023/10/02 09:53:08;;;;;;;1999.90;999.90;;;25.40;99.90;;;;;;5050210;28;20037;-75
2023/10/02 09:55:57;;;;;;;1999.90;999.90;;;25.30;99.90;;;;;;5050140;28;20083;-76
2023/10/02 09:58:32;;;;;;;1999.90;999.90;;;25.40;99.90;;;;;;5049262;28;20499;-74
2023/10/02 10:03:56;;;;;;;1999.90;999.90;;;26.00;99.90;;;;;;5044915;28;20461;-77
2023/10/02 10:06:28;;;;;;;1999.90;999.90;;;26.20;99.90;;;;;;5048276;28;20117;-76
2023/10/02 10:11:38;;;;;;;1999.90;999.90;;;26.40;99.90;;;;;;5049518;28;20534;-75
2023/10/02 10:14:40;;;;;;;1999.90;999.90;;;26.40;99.90;;;;;;5049789;28;20035;-74
2023/10/02 10:17:13;;;;;;;1999.90;999.90;;;26.40;99.90;;;;;;5050324;28;20044;-76
2023/10/02 10:19:41;;;;;;;1999.90;999.90;;;26.40;99.90;;;;;;5051914;28;20033;-76
2023/10/02 10:22:36;;;;;;;1999.90;999.90;;;26.40;99.90;;;;;;5052991;28;20403;-76
2023/10/02 10:27:40;;;;;;;1999.90;999.90;;;26.40;99.90;;;;;;5049615;28;20484;-74
2023/10/02 10:30:24;;;;;;;1999.90;999.90;;;26.60;99.90;;;;;;5055344;28;20025;-76
2023/10/02 10:33:15;;;;;;;1999.90;999.90;;;26.90;99.90;;;;;;5049291;28;20028;-76
2023/10/02 10:35:57;;;;;;;1999.90;999.90;;;26.90;99.90;;;;;;5052031;28;20036;-76
2023/10/02 10:38:25;;;;;;;1999.90;999.90;;;27.20;99.90;;;;;;5054632;28;20112;-76
2023/10/02 10:40:55;;;;;;;1999.90;999.90;;;27.10;99.90;;;;;;5054815;28;20025;-76
2023/10/02 10:43:26;;;;;;;1999.90;999.90;;;26.80;99.90;;;;;;5054846;28;20514;-76
2023/10/02 10:45:54;;;;;;;1999.90;999.90;;;26.90;99.90;;;;;;5054764;28;20033;-76
2023/10/02 10:48:23;;;;;;;1999.90;999.90;;;27.00;99.90;;;;;;5052988;28;20124;-75
2023/10/02 10:51:00;;;;;;;1999.90;999.90;;;27.10;99.90;;;;;;5053677;28;20029;-76
2023/10/02 10:53:29;;;;;;;1999.90;999.90;;;27.00;99.90;;;;;;5054428;28;20079;-75
2023/10/02 10:56:17;;;;;;;1999.90;999.90;;;27.00;99.90;;;;;;5054463;28;20064;-75
2023/10/02 10:58:44;;;;;;;1999.90;999.90;;;27.00;99.90;;;;;;5050491;28;20365;-76
2023/10/02 11:01:16;;;;;;;1999.90;999.90;;;27.00;99.90;;;;;;5052893;28;20106;-77
2023/10/02 11:03:43;;;;;;;1999.90;999.90;;;27.20;99.90;;;;;;5052954;28;20083;-75
2023/10/02 11:06:10;;;;;;;1999.90;999.90;;;27.30;99.90;;;;;;5053038;28;20037;-76
2023/10/02 11:08:40;;;;;;;1999.90;999.90;;;27.30;99.90;;;;;;5052888;28;20086;-75
2023/10/02 11:11:11;;;;;;;1999.90;999.90;;;27.30;99.90;;;;;;5052705;28;20029;-74
2023/10/02 11:13:50;;;;;;;1999.90;999.90;;;27.40;99.90;;;;;;5052032;28;20096;-76
2023/10/02 11:16:30;;;;;;;1999.90;999.90;;;27.60;99.90;;;;;;5053095;28;20033;-76
2023/10/02 11:22:15;;;;;;;1999.90;999.90;;;27.60;99.90;;;;;;5041819;28;20419;-76
2023/10/02 11:24:45;;;;;;;1999.90;999.90;;;27.70;99.90;;;;;;5052510;28;20045;-76
2023/10/02 11:27:14;;;;;;;1999.90;999.90;;;27.90;99.90;;;;;;5048371;28;20033;-75
2023/10/02 11:29:41;;;;;;;1999.90;999.90;;;28.00;99.90;;;;;;5047029;28;20116;-75
2023/10/02 11:32:22;;;;;;;1999.90;999.90;;;28.20;99.90;;;;;;5050721;28;20025;-76
2023/10/02 11:34:47;;;;;;;1999.90;999.90;;;28.20;99.90;;;;;;5052194;28;20395;-76
2023/10/02 11:37:14;;;;;;;1999.90;999.90;;;28.30;99.90;;;;;;5052773;28;20032;-76
2023/10/02 11:39:42;;;;;;;1999.90;999.90;;;28.40;99.90;;;;;;5052311;28;20033;-76
2023/10/02 11:42:08;;;;;;;1999.90;999.90;;;28.60;99.90;;;;;;5048237;28;20107;-75
2023/10/02 11:44:34;;;;;;;1999.90;999.90;;;28.80;99.90;;;;;;5024407;28;20112;-77
2023/10/02 11:47:00;;;;;;;1999.90;999.90;;;28.60;99.90;;;;;;5008072;28;20026;-76
2023/10/02 11:49:28;;;;;;;1999.90;999.90;;;28.80;99.90;;;;;;5024202;28;20029;-76
2023/10/02 11:52:02;;;;;;;1999.90;999.90;;;28.90;99.90;;;;;;5026348;28;20037;-76
2023/10/02 11:54:27;;;;;;;1999.90;999.90;;;28.90;99.90;;;;;;5026171;28;20326;-76
2023/10/02 11:56:53;;;;;;;1999.90;999.90;;;29.00;99.90;;;;;;5027032;28;20029;-76
2023/10/02 11:59:19;;;;;;;1999.90;999.90;;;29.00;99.90;;;;;;5027131;28;20567;-75
2023/10/02 12:01:47;;;;;;;1999.90;999.90;;;29.00;99.90;;;;;;5026615;28;20469;-76
2023/10/02 12:04:14;;;;;;;1999.90;999.90;;;29.10;99.90;;;;;;5025550;28;20025;-76
2023/10/02 12:06:41;;;;;;;1999.90;999.90;;;29.20;99.90;;;;;;5026708;28;20816;-75
2023/10/02 12:09:06;;;;;;;1999.90;999.90;;;29.20;99.90;;;;;;5028305;28;20121;-76
2023/10/02 12:11:34;;;;;;;1999.90;999.90;;;29.30;99.90;;;;;;5024570;28;20033;-76
2023/10/02 12:14:00;;;;;;;1999.90;999.90;;;29.50;99.90;;;;;;5026383;28;20036;-75
2023/10/02 12:16:26;;;;;;;1999.90;999.90;;;29.70;99.90;;;;;;5027709;28;20051;-76
2023/10/02 12:18:53;;;;;;;1999.90;999.90;;;29.80;99.90;;;;;;5027454;28;20128;-75
2023/10/02 12:21:21;;;;;;;1999.90;999.90;;;29.90;99.90;;;;;;5026706;28;20036;-75
2023/10/02 12:23:50;;;;;;;1999.90;999.90;;;30.10;99.90;;;;;;5027946;28;20809;-76
2023/10/02 12:26:17;;;;;;;1999.90;999.90;;;30.30;99.90;;;;;;5016187;28;20160;-76
2023/10/02 12:28:43;;;;;;;1999.90;999.90;;;30.20;99.90;;;;;;5022206;28;20063;-76
2023/10/02 12:31:14;;;;;;;1999.90;999.90;;;30.20;99.90;;;;;;5050722;28;20029;-75
2023/10/02 12:33:48;;;;;;;1999.90;999.90;;;30.30;99.90;;;;;;5038578;28;20097;-76
2023/10/02 12:36:17;;;;;;;1999.90;999.90;;;30.20;99.90;;;;;;5052223;28;20071;-75
2023/10/02 12:38:44;;;;;;;1999.90;999.90;;;30.30;99.90;;;;;;5050584;28;20400;-76
2023/10/02 12:41:22;;;;;;;1999.90;999.90;;;30.40;99.90;;;;;;5044253;28;20574;-74
2023/10/02 12:43:56;;;;;;;1999.90;999.90;;;30.60;99.90;;;;;;5050504;28;20029;-76
2023/10/02 12:46:23;;;;;;;1999.90;999.90;;;30.70;99.90;;;;;;5051376;28;20463;-74
2023/10/02 12:48:50;;;;;;;1999.90;999.90;;;30.40;99.90;;;;;;5050796;28;20032;-76
2023/10/02 12:51:17;;;;;;;1999.90;999.90;;;30.30;99.90;;;;;;5050784;28;20036;-74
2023/10/02 12:53:43;;;;;;;1999.90;999.90;;;30.20;99.90;;;;;;5049363;28;20025;-76
2023/10/02 12:56:18;;;;;;;1999.90;999.90;;;30.10;99.90;;;;;;5051018;28;20040;-76
2023/10/02 12:58:44;;;;;;;1999.90;999.90;;;30.20;99.90;;;;;;5047433;28;20036;-76
2023/10/02 13:01:13;;;;;;;1999.90;999.90;;;30.40;99.90;;;;;;5050988;28;20415;-76
2023/10/02 13:03:39;;;;;;;1999.90;999.90;;;30.50;99.90;;;;;;5049970;28;20827;-75
2023/10/02 13:06:05;;;;;;;1999.90;999.90;;;30.40;99.90;;;;;;5050258;28;20123;-76
2023/10/02 13:08:32;;;;;;;1999.90;999.90;;;30.40;99.90;;;;;;5051045;28;20498;-75
2023/10/02 13:10:58;;;;;;;1999.90;999.90;;;30.40;99.90;;;;;;5050878;28;20025;-76
2023/10/02 13:13:24;;;;;;;1999.90;999.90;;;30.30;99.90;;;;;;5050581;28;20385;-75
2023/10/02 13:15:50;;;;;;;1999.90;999.90;;;30.40;99.90;;;;;;5050896;28;20035;-75
2023/10/02 13:18:17;;;;;;;1999.90;999.90;;;30.20;99.90;;;;;;5050820;28;20108;-75
2023/10/02 13:20:44;;;;;;;1999.90;999.90;;;30.40;99.90;;;;;;5050386;28;20120;-75